createdAt,value
2023-01-15T00:02:23.119Z,10.20
2023-01-15T00:08:25.027Z,10.10
2023-01-15T00:14:26.964Z,10.10
2023-01-15T00:20:28.924Z,9.90
2023-01-15T00:26:51.811Z,9.90
2023-01-15T00:32:53.723Z,9.90
2023-01-15T00:38:55.881Z,9.90
2023-01-15T00:44:57.812Z,10.00
2023-01-15T00:50:59.818Z,10.00
2023-01-15T00:57:01.902Z,10.00
2023-01-15T01:03:03.840Z,9.90
2023-01-15T01:09:05.747Z,9.90
2023-01-15T01:15:09.978Z,9.80
2023-01-15T01:21:11.850Z,9.80
2023-01-15T01:27:13.736Z,9.70
2023-01-15T01:33:15.649Z,9.60
2023-01-15T01:39:19.709Z,9.40
2023-01-15T01:45:33.753Z,9.20
2023-01-15T01:52:01.969Z,9.10
2023-01-15T01:58:08.018Z,9.10
2023-01-15T02:04:11.596Z,9.00
2023-01-15T02:10:16.391Z,8.80
2023-01-15T02:16:34.174Z,7.90
2023-01-15T02:23:09.612Z,7.30
2023-01-15T02:29:21.466Z,6.90
2023-01-15T02:35:46.022Z,6.60
2023-01-15T02:41:52.123Z,6.30
2023-01-15T02:47:58.498Z,6.10
2023-01-15T02:54:03.451Z,5.90
2023-01-15T03:00:11.302Z,5.80
2023-01-15T03:06:46.406Z,5.80
2023-01-15T03:13:06.040Z,5.80
2023-01-15T03:19:13.570Z,5.80
2023-01-15T03:25:29.035Z,5.80
2023-01-15T03:31:31.035Z,5.80
2023-01-15T03:37:33.194Z,5.70
2023-01-15T03:44:10.546Z,5.80
2023-01-15T03:50:32.173Z,5.80
2023-01-15T03:56:59.796Z,5.90
2023-01-15T04:03:04.083Z,5.80
2023-01-15T04:09:10.030Z,5.80
2023-01-15T04:15:12.847Z,5.80
2023-01-15T04:21:14.719Z,5.90
2023-01-15T04:27:16.690Z,5.80
2023-01-15T04:33:18.588Z,5.90
2023-01-15T04:39:20.915Z,5.90
2023-01-15T04:45:22.819Z,5.90
2023-01-15T04:51:24.793Z,5.90
2023-01-15T04:57:26.675Z,6.00
2023-01-15T05:03:30.772Z,5.90
2023-01-15T05:09:33.124Z,5.80
2023-01-15T05:15:35.186Z,5.80
2023-01-15T05:21:41.452Z,5.90
2023-01-15T05:27:43.412Z,6.00
2023-01-15T05:33:49.066Z,6.10
2023-01-15T05:39:50.967Z,6.20
2023-01-15T05:45:52.891Z,6.20
2023-01-15T05:51:55.696Z,6.10
2023-01-15T05:57:58.498Z,6.10
2023-01-15T06:04:02.862Z,6.10
2023-01-15T06:10:05.400Z,6.10
2023-01-15T06:16:10.993Z,6.10
2023-01-15T06:22:12.983Z,6.10
2023-01-15T06:28:14.875Z,6.00
2023-01-15T06:34:16.851Z,6.00
2023-01-15T06:40:19.347Z,6.10
2023-01-15T06:46:40.031Z,6.10
2023-01-15T06:52:41.964Z,6.10
2023-01-15T06:58:44.149Z,6.10
2023-01-15T07:04:47.747Z,6.00
2023-01-15T07:10:49.729Z,6.00
2023-01-15T07:16:52.602Z,6.00
2023-01-15T07:22:54.492Z,5.90
2023-01-15T07:28:56.387Z,5.90
2023-01-15T07:34:58.275Z,5.90
2023-01-15T07:41:26.885Z,5.80
2023-01-15T07:47:47.550Z,5.80
2023-01-15T07:53:49.487Z,5.70
2023-01-15T07:59:51.737Z,5.70
2023-01-15T08:05:55.544Z,5.70
2023-01-15T08:12:21.366Z,5.70
2023-01-15T08:18:23.261Z,5.80
2023-01-15T08:24:25.249Z,5.80
2023-01-15T08:30:27.161Z,5.80
2023-01-15T08:36:29.045Z,5.80
2023-01-15T08:42:31.117Z,5.90
2023-01-15T08:48:33.358Z,5.80
2023-01-15T08:54:35.256Z,5.80
2023-01-15T09:00:37.709Z,5.80
2023-01-15T09:06:39.646Z,5.80
2023-01-15T09:12:41.530Z,5.90
2023-01-15T09:18:43.841Z,5.90
2023-01-15T09:24:46.483Z,5.90
2023-01-15T09:30:48.838Z,5.90
2023-01-15T09:36:51.243Z,6.00
2023-01-15T09:43:21.887Z,6.00
2023-01-15T09:49:48.534Z,6.10
2023-01-15T09:55:52.093Z,6.10
2023-01-15T10:01:54.359Z,6.10
2023-01-15T10:08:12.774Z,6.10
2023-01-15T10:14:45.267Z,6.20
2023-01-15T10:21:33.237Z,6.30
2023-01-15T10:27:37.310Z,6.40
2023-01-15T10:34:00.763Z,6.40
2023-01-15T10:40:42.363Z,6.40
2023-01-15T10:46:59.087Z,6.40
2023-01-15T10:53:29.252Z,6.40
2023-01-15T10:59:47.527Z,6.60
2023-01-15T11:05:49.831Z,6.60
2023-01-15T11:12:18.296Z,6.60
2023-01-15T11:18:51.878Z,6.70
2023-01-15T11:25:04.047Z,6.60
2023-01-15T11:31:11.647Z,6.70
2023-01-15T11:37:13.606Z,6.70
2023-01-15T11:43:43.375Z,6.60
2023-01-15T11:50:13.904Z,6.60
2023-01-15T11:56:20.356Z,7.40
2023-01-15T12:02:44.795Z,7.70
2023-01-15T12:09:15.313Z,7.50
2023-01-15T12:16:07.315Z,7.30
2023-01-15T12:22:45.395Z,7.20
2023-01-15T12:29:20.854Z,7.10
2023-01-15T12:35:31.459Z,7.30
2023-01-15T12:41:56.363Z,7.70
2023-01-15T12:48:24.059Z,7.50
2023-01-15T12:54:38.128Z,7.40
2023-01-15T13:00:43.604Z,7.30
2023-01-15T13:06:51.823Z,7.40
2023-01-15T13:13:28.992Z,7.50
2023-01-15T13:20:31.198Z,7.50
2023-01-15T13:26:57.236Z,7.40
2023-01-15T13:33:12.793Z,7.30
2023-01-15T13:39:24.799Z,7.40
2023-01-15T13:45:48.578Z,7.30
2023-01-15T13:51:51.075Z,7.50
2023-01-15T13:57:52.989Z,7.60
2023-01-15T14:04:02.698Z,7.60
2023-01-15T14:10:26.428Z,7.30
2023-01-15T14:16:43.056Z,7.50
2023-01-15T14:23:18.044Z,7.60
2023-01-15T14:29:33.676Z,7.50
2023-01-15T14:35:40.168Z,7.30
2023-01-15T14:42:02.448Z,7.10
2023-01-15T14:48:17.658Z,7.10
2023-01-15T14:54:20.715Z,7.00
2023-01-15T15:00:24.340Z,7.10
2023-01-15T15:06:28.019Z,7.00
2023-01-15T15:12:42.919Z,6.90
2023-01-15T15:18:58.385Z,7.00
2023-01-15T15:25:17.872Z,6.90
2023-01-15T15:31:19.797Z,6.80
2023-01-15T15:37:27.476Z,6.80
2023-01-15T15:44:14.527Z,6.70
2023-01-15T15:50:26.434Z,6.80
2023-01-15T15:56:30.559Z,6.70
2023-01-15T16:02:38.127Z,6.70
2023-01-15T16:08:40.063Z,6.70
2023-01-15T16:14:42.083Z,6.70
2023-01-15T16:20:44.141Z,6.60
2023-01-15T16:27:05.572Z,6.70
2023-01-15T16:33:08.202Z,6.70
2023-01-15T16:39:23.599Z,6.60
2023-01-15T16:45:27.245Z,6.60
2023-01-15T16:51:32.179Z,6.50
2023-01-15T16:57:35.323Z,6.50
2023-01-15T17:03:41.715Z,6.50
2023-01-15T17:09:56.669Z,6.50
2023-01-15T17:16:06.638Z,6.50
2023-01-15T17:22:16.845Z,6.40
2023-01-15T17:28:19.235Z,6.40
2023-01-15T17:34:25.125Z,6.40
2023-01-15T17:40:27.139Z,6.40
2023-01-15T17:46:29.171Z,6.40
2023-01-15T17:52:31.091Z,6.30
2023-01-15T17:58:51.508Z,6.40
2023-01-15T18:05:13.371Z,6.40
2023-01-15T18:11:15.354Z,6.40
2023-01-15T18:17:17.270Z,6.40
2023-01-15T18:23:19.174Z,6.50
2023-01-15T18:29:21.363Z,6.50
2023-01-15T18:35:23.944Z,6.50
2023-01-15T18:41:37.654Z,6.50
2023-01-15T18:47:41.058Z,6.40
2023-01-15T18:53:42.963Z,6.40
2023-01-15T18:59:47.387Z,6.40
2023-01-15T19:05:49.393Z,6.40
2023-01-15T19:11:52.471Z,6.40
2023-01-15T19:18:13.035Z,6.40
2023-01-15T19:24:14.939Z,6.30
2023-01-15T19:30:17.262Z,6.30
2023-01-15T19:36:19.140Z,6.30
2023-01-15T19:42:39.572Z,6.20
2023-01-15T19:49:00.306Z,6.20
2023-01-15T19:55:08.263Z,6.10
2023-01-15T20:01:17.423Z,6.10
2023-01-15T20:07:19.451Z,6.10
2023-01-15T20:13:42.302Z,6.10
2023-01-15T20:19:44.185Z,6.10
2023-01-15T20:25:50.137Z,6.20
2023-01-15T20:31:52.145Z,6.10
2023-01-15T20:37:54.266Z,6.10
2023-01-15T20:44:14.835Z,6.10
2023-01-15T20:50:17.896Z,6.10
2023-01-15T20:56:19.974Z,6.10
2023-01-15T21:02:22.286Z,6.10
2023-01-15T21:08:24.265Z,6.10
2023-01-15T21:14:26.144Z,6.10
2023-01-15T21:20:28.227Z,6.00
2023-01-15T21:26:31.000Z,6.00
2023-01-15T21:32:32.927Z,6.00
2023-01-15T21:38:35.163Z,5.90
2023-01-15T21:44:43.688Z,5.80
2023-01-15T21:50:45.664Z,5.80
2023-01-15T21:56:47.628Z,5.80
2023-01-15T22:02:49.802Z,5.80
2023-01-15T22:08:55.398Z,5.80
2023-01-15T22:14:57.569Z,5.80
2023-01-15T22:21:07.512Z,5.80
2023-01-15T22:27:15.257Z,5.80
2023-01-15T22:33:17.594Z,5.80
2023-01-15T22:39:21.064Z,5.80
2023-01-15T22:45:24.460Z,5.70
2023-01-15T22:51:26.469Z,5.60
2023-01-15T22:57:30.966Z,5.50
2023-01-15T23:03:35.609Z,5.40
2023-01-15T23:09:37.617Z,5.30
2023-01-15T23:15:39.741Z,5.20
2023-01-15T23:21:42.022Z,5.20
2023-01-15T23:27:43.945Z,5.10
2023-01-15T23:33:46.415Z,5.00
2023-01-15T23:39:48.315Z,5.00
2023-01-15T23:46:09.467Z,5.00
2023-01-15T23:52:11.738Z,5.10
2023-01-15T23:58:13.620Z,5.10
